aviador You're here:

OEMA Decoded Metar

MADINAH in SAUDI ARABIA
Report Time2017-08-22 16:00:00
UTC Time2017-08-22 16:33:28
Flight Rules vfr VFR
Wind310° at 07 kt
W.Decomp.*RWY 35: 5.1 kt HW 4.8 kt LCW
RWY 36: 4.2 kt HW 5.6 kt LCW
W.Rank310° ranks 15
Current wind is below 310° avg. (7.6)
Visibility9999 m
Phenomena:N/A
Clouds:Scattered 045 Hf
Scattered 100 Hf
Expected CloudBase > 16,000 ft AGL from Temp-Dew spread
CeilingNone
Temp41°C (ISA +30)
Dew Point01°C (8% RH)
Heat Index37.6°C
AAT36.5°C
QNH1006 hPa
Density Alt5,751 ft
Elevation2,070 ft
Report Wrong Elevation
Raw Report
METAR OEMA 221600Z 31007KT 9999 SCT045 SCT100 41/01 Q1006 NOSIG=

Extra information for OEMA:More info

Metar Taf Metar & Taf Last 4 Metars F.Rules Stats Wind Profile Meteogram Temp Stats Airport Information Weather charts Add Link Nearby VenuesMetar ALERT Operation Metar Decoded Social comments